createdAt,value
2022-08-27T00:02:21.696Z,99953.41
2022-08-27T00:04:53.266Z,99952.74
2022-08-27T00:07:22.644Z,99947.30
2022-08-27T00:09:54.751Z,99947.42
2022-08-27T00:12:27.177Z,99940.40
2022-08-27T00:14:59.749Z,99936.77
2022-08-27T00:17:32.862Z,99933.92
2022-08-27T00:20:03.557Z,99933.70
2022-08-27T00:22:36.034Z,99937.30
2022-08-27T00:25:08.802Z,99937.20
2022-08-27T00:27:39.033Z,99939.11
2022-08-27T00:30:13.642Z,99938.20
2022-08-27T00:32:45.370Z,99939.42
2022-08-27T00:35:16.374Z,99938.70
2022-08-27T00:37:50.615Z,99937.36
2022-08-27T00:40:22.527Z,99934.66
2022-08-27T00:42:52.691Z,99935.73
2022-08-27T00:45:25.873Z,99938.65
2022-08-27T00:47:59.020Z,99940.02
2022-08-27T00:50:47.036Z,99937.19
2022-08-27T00:53:38.687Z,99938.95
2022-08-27T00:56:22.978Z,99939.23
2022-08-27T00:58:54.388Z,99941.45
2022-08-27T01:01:28.587Z,99939.06
2022-08-27T01:04:03.203Z,99940.20
2022-08-27T01:06:37.483Z,99943.70
2022-08-27T01:09:13.078Z,99941.33
2022-08-27T01:11:42.314Z,99941.12
2022-08-27T01:14:15.543Z,99941.21
2022-08-27T01:16:50.943Z,99938.13
2022-08-27T01:19:48.903Z,99932.19
2022-08-27T01:22:36.485Z,99935.52
2022-08-27T01:25:12.564Z,99932.41
2022-08-27T01:27:43.029Z,99929.41
2022-08-27T01:30:16.968Z,99934.55
2022-08-27T01:32:48.231Z,99935.94
2022-08-27T01:35:19.272Z,99939.10
2022-08-27T01:37:52.437Z,99938.79
2022-08-27T01:40:25.316Z,99941.09
2022-08-27T01:42:59.574Z,99941.75
2022-08-27T01:45:41.449Z,99942.11
2022-08-27T01:48:11.081Z,99947.16
2022-08-27T01:50:42.057Z,99944.70
2022-08-27T01:53:21.000Z,99949.59
2022-08-27T01:55:52.903Z,99950.86
2022-08-27T01:58:25.925Z,99950.27
2022-08-27T02:01:03.282Z,99948.91
2022-08-27T02:03:37.166Z,99945.31
2022-08-27T02:06:10.000Z,99941.41
2022-08-27T02:08:42.304Z,99941.89
2022-08-27T02:11:12.156Z,99942.48
2022-08-27T02:13:42.352Z,99941.95
2022-08-27T02:16:15.050Z,99938.17
2022-08-27T02:18:47.502Z,99940.48
2022-08-27T02:21:18.354Z,99933.73
2022-08-27T02:23:51.072Z,99930.86
2022-08-27T02:26:24.435Z,99926.73
2022-08-27T02:28:55.106Z,99931.14
2022-08-27T02:31:24.474Z,99925.15
2022-08-27T02:34:19.794Z,99926.01
2022-08-27T02:36:49.167Z,99926.17
2022-08-27T02:39:18.370Z,99921.44
2022-08-27T02:41:50.655Z,99922.87
2022-08-27T02:44:19.909Z,99923.20
2022-08-27T02:46:51.876Z,99926.19
2022-08-27T02:49:23.155Z,99922.30
2022-08-27T02:51:57.627Z,99919.27
2022-08-27T02:54:27.561Z,99916.23
2022-08-27T02:56:57.567Z,99913.79
2022-08-27T02:59:28.378Z,99916.88
2022-08-27T03:01:59.700Z,99917.64
2022-08-27T03:04:29.706Z,99915.45
2022-08-27T03:06:59.470Z,99916.46
2022-08-27T03:09:29.979Z,99916.56
2022-08-27T03:11:59.556Z,99918.92
2022-08-27T03:14:29.194Z,99920.27
2022-08-27T03:17:21.681Z,99921.33
2022-08-27T03:19:51.782Z,99920.21
2022-08-27T03:22:23.731Z,99923.09
2022-08-27T03:24:56.684Z,99919.19
2022-08-27T03:27:39.888Z,99920.88
2022-08-27T03:30:16.237Z,99917.77
2022-08-27T03:32:47.380Z,99914.39
2022-08-27T03:35:16.965Z,99916.69
2022-08-27T03:37:46.862Z,99918.93
2022-08-27T03:40:18.403Z,99915.05
2022-08-27T03:42:50.986Z,99917.09
2022-08-27T03:45:20.339Z,99920.46
2022-08-27T03:47:52.406Z,99921.33
2022-08-27T03:50:21.837Z,99922.45
2022-08-27T03:52:54.085Z,99918.55
2022-08-27T03:55:37.699Z,99920.01
2022-08-27T03:58:10.762Z,99917.44
2022-08-27T04:00:43.275Z,99921.94
2022-08-27T04:03:14.994Z,99921.50
2022-08-27T04:05:45.196Z,99923.39
2022-08-27T04:08:14.863Z,99929.84
2022-08-27T04:10:44.027Z,99928.80
2022-08-27T04:13:13.296Z,99932.47
2022-08-27T04:15:45.351Z,99930.09
2022-08-27T04:18:16.945Z,99933.15
2022-08-27T04:20:50.156Z,99930.48
2022-08-27T04:23:20.655Z,99928.66
2022-08-27T04:25:50.558Z,99922.92
2022-08-27T04:28:19.972Z,99920.61
2022-08-27T04:30:52.452Z,99922.79
2022-08-27T04:33:21.730Z,99924.29
2022-08-27T04:36:07.113Z,99925.50
2022-08-27T04:38:37.643Z,99922.81
2022-08-27T04:41:23.458Z,99920.52
2022-08-27T04:43:57.504Z,99916.85
2022-08-27T04:46:30.692Z,99915.02
2022-08-27T04:49:03.572Z,99916.42
2022-08-27T04:51:41.802Z,99919.76
2022-08-27T04:54:12.400Z,99919.36
2022-08-27T04:56:42.297Z,99919.65
2022-08-27T04:59:13.224Z,99917.20
2022-08-27T05:01:43.382Z,99917.05
2022-08-27T05:04:18.076Z,99916.85
2022-08-27T05:06:51.362Z,99919.82
2022-08-27T05:09:26.886Z,99924.36
2022-08-27T05:11:56.944Z,99924.27
2022-08-27T05:14:30.762Z,99926.50
2022-08-27T05:17:01.132Z,99924.42
2022-08-27T05:19:31.865Z,99924.18
2022-08-27T05:22:01.796Z,99928.63
2022-08-27T05:24:33.974Z,99928.89
2022-08-27T05:27:03.539Z,99924.53
2022-08-27T05:29:33.026Z,99926.27
2022-08-27T05:32:02.310Z,99929.07
2022-08-27T05:34:31.709Z,99926.35
2022-08-27T05:37:04.066Z,99924.34
2022-08-27T05:39:33.522Z,99925.40
2022-08-27T05:42:03.480Z,99925.45
2022-08-27T05:44:41.599Z,99923.98
2022-08-27T05:47:12.747Z,99923.67
2022-08-27T05:49:44.908Z,99923.81
2022-08-27T05:52:16.247Z,99922.97
2022-08-27T05:54:47.025Z,99926.13
2022-08-27T05:57:16.620Z,99924.14
2022-08-27T06:00:03.887Z,99927.89
2022-08-27T06:02:44.373Z,99920.36
2022-08-27T06:05:14.024Z,99920.84
2022-08-27T06:07:44.645Z,99917.55
2022-08-27T06:10:14.662Z,99921.94
2022-08-27T06:12:44.034Z,99923.02
2022-08-27T06:15:13.040Z,99921.48
2022-08-27T06:17:42.281Z,99923.34
2022-08-27T06:20:11.773Z,99919.27
2022-08-27T06:22:41.558Z,99919.80
2022-08-27T06:25:11.176Z,99923.71
2022-08-27T06:27:40.594Z,99920.20
2022-08-27T06:30:14.616Z,99920.34
2022-08-27T06:32:47.048Z,99920.76
2022-08-27T06:35:16.198Z,99915.66
2022-08-27T06:37:45.654Z,99917.86
2022-08-27T06:40:57.046Z,99911.83
2022-08-27T06:43:40.013Z,99910.33
2022-08-27T06:46:13.596Z,99913.86
2022-08-27T06:48:45.969Z,99909.46
2022-08-27T06:51:19.687Z,99909.23
2022-08-27T06:53:50.282Z,99906.05
2022-08-27T06:56:20.888Z,99903.98
2022-08-27T06:58:55.755Z,99901.24
2022-08-27T07:01:30.363Z,99911.22
2022-08-27T07:04:02.735Z,99912.46
2022-08-27T07:06:33.114Z,99912.16
2022-08-27T07:09:02.899Z,99911.08
2022-08-27T07:11:34.933Z,99912.73
2022-08-27T07:14:06.771Z,99909.20
2022-08-27T07:16:36.609Z,99908.96
2022-08-27T07:19:08.075Z,99908.83
2022-08-27T07:21:39.083Z,99909.63
2022-08-27T07:24:10.486Z,99911.64
2022-08-27T07:26:43.441Z,99906.34
2022-08-27T07:29:15.558Z,99906.70
2022-08-27T07:31:44.472Z,99907.13
2022-08-27T07:34:14.020Z,99908.84
2022-08-27T07:36:43.255Z,99911.09
2022-08-27T07:39:14.403Z,99912.96
2022-08-27T07:42:01.944Z,99910.10
2022-08-27T07:44:34.503Z,99904.32
2022-08-27T07:47:04.537Z,99902.18
2022-08-27T07:49:35.437Z,99899.41
2022-08-27T07:52:04.714Z,99900.48
2022-08-27T07:54:37.467Z,99903.77
2022-08-27T07:57:07.360Z,99900.04
2022-08-27T07:59:38.884Z,99898.98
2022-08-27T08:02:08.030Z,99902.04
2022-08-27T08:04:36.873Z,99900.73
2022-08-27T08:07:06.087Z,99904.11
2022-08-27T08:09:35.240Z,99902.46
2022-08-27T08:12:05.081Z,99906.00
2022-08-27T08:14:34.388Z,99906.48
2022-08-27T08:17:05.622Z,99903.81
2022-08-27T08:20:17.575Z,99900.77
2022-08-27T08:22:43.651Z,99897.76
2022-08-27T08:25:14.893Z,99895.11
2022-08-27T08:27:45.375Z,99895.69
2022-08-27T08:30:15.534Z,99897.27
2022-08-27T08:32:44.708Z,99900.98
2022-08-27T08:35:14.062Z,99901.83
2022-08-27T08:37:46.701Z,99897.89
2022-08-27T08:40:31.186Z,99895.42
2022-08-27T08:43:02.063Z,99894.27
2022-08-27T08:45:35.214Z,99894.91
2022-08-27T08:48:21.045Z,99898.26
2022-08-27T08:51:00.885Z,99896.29
2022-08-27T08:53:51.131Z,99893.36
2022-08-27T08:57:01.442Z,99890.92
2022-08-27T08:59:37.507Z,99889.80
2022-08-27T09:02:13.561Z,99886.66
2022-08-27T09:04:44.857Z,99884.98
2022-08-27T09:07:38.832Z,99881.42
2022-08-27T09:10:37.229Z,99885.27
2022-08-27T09:13:21.488Z,99883.61
2022-08-27T09:15:56.118Z,99881.30
2022-08-27T09:18:28.285Z,99879.33
2022-08-27T09:21:31.090Z,99878.74
2022-08-27T09:24:24.327Z,99880.60
2022-08-27T09:27:00.969Z,99874.73
2022-08-27T09:29:39.873Z,99869.17
2022-08-27T09:32:18.507Z,99867.59
2022-08-27T09:35:13.743Z,99866.95
2022-08-27T09:38:00.777Z,99864.91
2022-08-27T09:40:46.251Z,99867.71
2022-08-27T09:43:24.689Z,99861.89
2022-08-27T09:46:06.208Z,99861.46
2022-08-27T09:48:49.407Z,99861.96
2022-08-27T09:51:33.427Z,99861.66
2022-08-27T09:54:33.543Z,99860.94
2022-08-27T09:57:35.344Z,99860.45
2022-08-27T10:00:26.949Z,99856.66
2022-08-27T10:03:20.293Z,99857.99
2022-08-27T10:06:11.635Z,99857.76
2022-08-27T10:09:07.079Z,99852.66
2022-08-27T10:12:18.954Z,99848.94
2022-08-27T10:15:25.064Z,99848.30
2022-08-27T10:18:56.846Z,99843.18
2022-08-27T10:22:08.336Z,99842.39
2022-08-27T10:25:27.890Z,99844.66
2022-08-27T10:28:39.788Z,99841.46
2022-08-27T10:32:08.330Z,99840.18
2022-08-27T10:35:48.075Z,99836.55
2022-08-27T10:38:48.487Z,99842.35
2022-08-27T10:41:45.890Z,99840.26
2022-08-27T10:44:49.063Z,99841.98
2022-08-27T10:47:55.338Z,99840.23
2022-08-27T10:50:48.618Z,99839.59
2022-08-27T10:53:43.186Z,99838.58
2022-08-27T10:56:33.818Z,99842.14
2022-08-27T10:59:08.760Z,99840.27
2022-08-27T11:01:54.588Z,99841.06
2022-08-27T11:04:33.308Z,99841.08
2022-08-27T11:07:16.054Z,99841.10
2022-08-27T11:10:07.701Z,99838.94
2022-08-27T11:12:43.202Z,99840.23
2022-08-27T11:15:23.320Z,99844.20
2022-08-27T11:18:08.874Z,99843.06
2022-08-27T11:20:54.072Z,99835.84
2022-08-27T11:23:59.915Z,99836.15
2022-08-27T11:26:35.841Z,99832.70
2022-08-27T11:29:22.587Z,99827.15
2022-08-27T11:32:11.237Z,99827.38
2022-08-27T11:34:43.863Z,99828.19
2022-08-27T11:37:20.110Z,99825.39
2022-08-27T11:40:24.082Z,99821.69
2022-08-27T11:43:19.771Z,99823.54
2022-08-27T11:45:59.485Z,99824.17
2022-08-27T11:48:40.147Z,99830.71
2022-08-27T11:51:25.929Z,99828.87
2022-08-27T11:53:58.718Z,99823.90
2022-08-27T11:56:30.741Z,99820.27
2022-08-27T11:59:33.932Z,99813.80
2022-08-27T12:02:29.797Z,99817.98
2022-08-27T12:05:26.477Z,99823.14
2022-08-27T12:07:55.709Z,99821.19
2022-08-27T12:10:43.172Z,99822.38
2022-08-27T12:13:12.470Z,99817.33
2022-08-27T12:16:07.488Z,99814.17
2022-08-27T12:19:14.682Z,99816.58
2022-08-27T12:22:14.473Z,99809.95
2022-08-27T12:24:56.071Z,99805.14
2022-08-27T12:27:35.063Z,99805.29
2022-08-27T12:30:29.729Z,99804.60
2022-08-27T12:33:05.604Z,99804.13
2022-08-27T12:35:48.952Z,99804.90
2022-08-27T12:38:22.640Z,99806.98
2022-08-27T12:41:00.459Z,99810.99
2022-08-27T12:43:35.595Z,99805.80
2022-08-27T12:46:10.840Z,99807.80
2022-08-27T12:48:52.250Z,99803.02
2022-08-27T12:51:32.907Z,99805.33
2022-08-27T12:54:02.180Z,99805.71
2022-08-27T12:56:59.419Z,99803.53
2022-08-27T13:00:00.810Z,99796.30
2022-08-27T13:03:07.904Z,99798.86
2022-08-27T13:05:41.394Z,99800.90
2022-08-27T13:08:28.597Z,99798.46
2022-08-27T13:11:12.720Z,99792.42
2022-08-27T13:13:43.459Z,99790.58
2022-08-27T13:16:14.150Z,99785.79
2022-08-27T13:18:57.346Z,99788.24
2022-08-27T13:21:33.175Z,99786.99
2022-08-27T13:24:06.370Z,99779.86
2022-08-27T13:26:39.165Z,99780.34
2022-08-27T13:29:10.825Z,99779.88
2022-08-27T13:31:40.357Z,99781.10
2022-08-27T13:34:19.810Z,99782.66
2022-08-27T13:36:52.228Z,99780.88
2022-08-27T13:39:22.230Z,99785.30
2022-08-27T13:41:54.968Z,99786.41
2022-08-27T13:44:33.462Z,99780.83
2022-08-27T13:47:08.218Z,99777.72
2022-08-27T13:49:52.386Z,99773.73
2022-08-27T13:52:58.449Z,99775.89
2022-08-27T13:55:29.382Z,99774.67
2022-08-27T13:57:58.519Z,99774.84
2022-08-27T14:00:29.410Z,99777.67
2022-08-27T14:03:02.479Z,99782.54
2022-08-27T14:05:37.193Z,99781.04
2022-08-27T14:08:17.397Z,99781.82
2022-08-27T14:11:05.633Z,99774.02
2022-08-27T14:13:43.524Z,99775.70
2022-08-27T14:16:25.999Z,99774.70
2022-08-27T14:19:10.685Z,99776.50
2022-08-27T14:21:43.704Z,99775.45
2022-08-27T14:24:14.069Z,99772.05
2022-08-27T14:27:09.689Z,99773.34
2022-08-27T14:29:40.267Z,99775.17
2022-08-27T14:32:25.984Z,99769.99
2022-08-27T14:34:56.361Z,99768.95
2022-08-27T14:37:26.216Z,99772.19
2022-08-27T14:39:56.387Z,99770.87
2022-08-27T14:42:40.915Z,99768.73
2022-08-27T14:45:10.510Z,99770.54
2022-08-27T14:47:43.843Z,99769.34
2022-08-27T14:50:14.016Z,99770.12
2022-08-27T14:52:43.406Z,99768.70
2022-08-27T14:55:14.707Z,99767.92
2022-08-27T14:57:43.879Z,99767.42
2022-08-27T15:00:13.452Z,99769.18
2022-08-27T15:02:48.080Z,99764.02
2022-08-27T15:05:19.420Z,99765.51
2022-08-27T15:07:56.940Z,99761.75
2022-08-27T15:10:27.317Z,99761.50
2022-08-27T15:12:58.273Z,99757.34
2022-08-27T15:15:30.346Z,99756.17
2022-08-27T15:17:59.686Z,99757.39
2022-08-27T15:20:42.886Z,99756.27
2022-08-27T15:23:25.374Z,99758.97
2022-08-27T15:26:07.903Z,99758.86
2022-08-27T15:28:37.452Z,99758.61
2022-08-27T15:31:06.999Z,99757.44
2022-08-27T15:33:38.393Z,99758.98
2022-08-27T15:36:14.185Z,99757.16
2022-08-27T15:38:43.519Z,99755.07
2022-08-27T15:41:12.959Z,99752.05
2022-08-27T15:43:45.551Z,99750.18
2022-08-27T15:46:15.902Z,99747.85
2022-08-27T15:48:45.417Z,99750.39
2022-08-27T15:51:16.204Z,99753.58
2022-08-27T15:53:45.327Z,99748.61
2022-08-27T15:56:33.858Z,99743.13
2022-08-27T15:59:05.653Z,99741.98
2022-08-27T16:01:40.001Z,99744.58
2022-08-27T16:04:10.529Z,99741.83
2022-08-27T16:06:40.226Z,99739.60
2022-08-27T16:09:24.700Z,99741.96
2022-08-27T16:11:54.109Z,99740.27
2022-08-27T16:14:23.206Z,99742.19
2022-08-27T16:16:52.653Z,99739.41
2022-08-27T16:19:22.254Z,99735.25
2022-08-27T16:21:53.000Z,99735.31
2022-08-27T16:24:22.929Z,99739.39
2022-08-27T16:27:05.312Z,99738.55
2022-08-27T16:29:36.996Z,99735.16
2022-08-27T16:32:06.890Z,99737.89
2022-08-27T16:34:39.037Z,99737.75
2022-08-27T16:37:22.470Z,99734.86
2022-08-27T16:39:51.941Z,99735.00
2022-08-27T16:42:22.029Z,99736.30
2022-08-27T16:44:51.542Z,99735.32
2022-08-27T16:47:20.489Z,99733.05
2022-08-27T16:50:07.972Z,99730.67
2022-08-27T16:52:37.018Z,99734.40
2022-08-27T16:55:06.179Z,99732.35
2022-08-27T16:57:34.961Z,99735.12
2022-08-27T17:00:06.139Z,99731.52
2022-08-27T17:02:36.294Z,99733.95
2022-08-27T17:05:30.690Z,99738.64
2022-08-27T17:08:11.774Z,99741.45
2022-08-27T17:10:46.625Z,99742.45
2022-08-27T17:13:20.475Z,99740.77
2022-08-27T17:15:53.002Z,99740.92
2022-08-27T17:18:24.835Z,99743.47
2022-08-27T17:20:55.485Z,99740.73
2022-08-27T17:23:46.933Z,99745.25
2022-08-27T17:26:34.034Z,99747.98
2022-08-27T17:29:02.998Z,99749.89
2022-08-27T17:31:37.269Z,99751.38
2022-08-27T17:34:07.974Z,99754.92
2022-08-27T17:36:36.961Z,99758.93
2022-08-27T17:39:06.763Z,99755.42
2022-08-27T17:41:39.801Z,99756.45
2022-08-27T17:44:25.442Z,99754.09
2022-08-27T17:46:57.497Z,99754.34
2022-08-27T17:49:27.793Z,99757.23
2022-08-27T17:52:14.847Z,99758.09
2022-08-27T17:54:47.393Z,99760.48
2022-08-27T17:57:25.718Z,99763.54
2022-08-27T17:59:56.217Z,99765.83
2022-08-27T18:02:47.624Z,99767.74
2022-08-27T18:05:19.470Z,99767.63
2022-08-27T18:07:49.800Z,99766.21
2022-08-27T18:10:24.186Z,99766.19
2022-08-27T18:12:56.497Z,99772.66
2022-08-27T18:15:41.450Z,99773.55
2022-08-27T18:18:12.521Z,99774.15
2022-08-27T18:20:42.782Z,99776.14
2022-08-27T18:23:11.988Z,99780.49
2022-08-27T18:25:42.916Z,99777.85
2022-08-27T18:28:17.709Z,99784.11
2022-08-27T18:30:48.575Z,99783.40
2022-08-27T18:33:21.648Z,99785.21
2022-08-27T18:35:51.891Z,99786.84
2022-08-27T18:38:22.419Z,99786.84
2022-08-27T18:40:51.916Z,99787.69
2022-08-27T18:43:30.234Z,99790.56
2022-08-27T18:46:00.182Z,99790.96
2022-08-27T18:48:29.237Z,99793.05
2022-08-27T18:51:00.506Z,99796.41
2022-08-27T18:53:33.325Z,99792.80
2022-08-27T18:56:03.259Z,99796.95
2022-08-27T18:58:32.232Z,99802.90
2022-08-27T19:01:03.549Z,99803.77
2022-08-27T19:03:36.907Z,99806.07
2022-08-27T19:06:08.998Z,99813.17
2022-08-27T19:08:40.277Z,99810.37
2022-08-27T19:11:10.008Z,99811.63
2022-08-27T19:13:40.249Z,99811.63
2022-08-27T19:16:15.238Z,99811.40
2022-08-27T19:18:45.739Z,99813.51
2022-08-27T19:21:15.661Z,99812.20
2022-08-27T19:23:45.288Z,99816.98
2022-08-27T19:26:18.599Z,99819.98
2022-08-27T19:28:48.515Z,99819.24
2022-08-27T19:31:45.360Z,99815.98
2022-08-27T19:34:28.194Z,99812.66
2022-08-27T19:37:40.776Z,99806.34
2022-08-27T19:40:33.545Z,99808.80
2022-08-27T19:43:03.439Z,99808.67
2022-08-27T19:45:35.819Z,99808.85
2022-08-27T19:50:52.456Z,99808.40
2022-08-27T19:53:30.914Z,99813.08
2022-08-27T20:07:10.902Z,99811.54
2022-08-27T20:09:56.940Z,99814.27
2022-08-27T20:13:11.102Z,99812.94
2022-08-27T20:16:08.670Z,99818.74
2022-08-27T20:19:11.405Z,99823.46
2022-08-27T20:21:56.460Z,99825.93
2022-08-27T20:24:55.174Z,99830.91
2022-08-27T20:27:48.927Z,99835.68
2022-08-27T20:31:14.959Z,99837.41
2022-08-27T20:34:05.072Z,99832.16
2022-08-27T20:37:07.063Z,99831.88
2022-08-27T20:39:38.909Z,99829.52
2022-08-27T20:42:08.576Z,99826.86
2022-08-27T20:44:44.862Z,99827.14
2022-08-27T20:47:22.205Z,99828.24
2022-08-27T20:49:54.737Z,99830.85
2022-08-27T20:52:24.598Z,99829.89
2022-08-27T20:54:53.735Z,99826.59
2022-08-27T20:57:22.629Z,99825.63
2022-08-27T21:00:09.681Z,99827.14
2022-08-27T21:02:39.236Z,99825.20
2022-08-27T21:05:16.368Z,99820.87
2022-08-27T21:07:48.648Z,99819.09
2022-08-27T21:10:18.497Z,99816.41
2022-08-27T21:12:50.276Z,99815.54
2022-08-27T21:15:21.851Z,99813.86
2022-08-27T21:17:55.170Z,99813.67
2022-08-27T21:20:24.517Z,99812.54
2022-08-27T21:22:53.773Z,99811.39
2022-08-27T21:25:27.251Z,99819.55
2022-08-27T21:27:58.143Z,99817.68
2022-08-27T21:30:27.808Z,99816.77
2022-08-27T21:32:57.398Z,99821.10
2022-08-27T21:35:30.065Z,99822.29
2022-08-27T21:38:00.930Z,99819.59
2022-08-27T21:40:30.732Z,99821.19
2022-08-27T21:43:13.536Z,99822.45
2022-08-27T21:45:43.480Z,99821.10
2022-08-27T21:48:12.962Z,99814.70
2022-08-27T21:50:42.505Z,99815.55
2022-08-27T21:53:11.356Z,99809.65
2022-08-27T21:55:40.250Z,99814.77
2022-08-27T21:58:09.179Z,99813.59
2022-08-27T22:00:44.029Z,99815.81
2022-08-27T22:03:15.490Z,99812.83
2022-08-27T22:05:45.714Z,99812.65
2022-08-27T22:08:17.532Z,99813.98
2022-08-27T22:10:52.646Z,99812.71
2022-08-27T22:13:22.570Z,99811.52
2022-08-27T22:15:51.379Z,99811.81
2022-08-27T22:18:23.016Z,99808.64
2022-08-27T22:20:53.982Z,99807.52
2022-08-27T22:23:23.523Z,99808.38
2022-08-27T22:25:53.473Z,99807.14
2022-08-27T22:28:42.531Z,99811.11
2022-08-27T22:31:14.342Z,99809.98
2022-08-27T22:33:49.483Z,99807.45
2022-08-27T22:36:40.625Z,99808.40
2022-08-27T22:39:18.581Z,99809.97
2022-08-27T22:41:53.979Z,99806.98
2022-08-27T22:44:31.904Z,99805.94
2022-08-27T22:47:05.812Z,99802.20
2022-08-27T22:49:37.961Z,99803.70
2022-08-27T22:52:10.783Z,99801.92
2022-08-27T22:54:42.687Z,99798.98
2022-08-27T22:57:15.176Z,99798.82
2022-08-27T22:59:45.870Z,99797.39
2022-08-27T23:02:15.788Z,99798.59
2022-08-27T23:04:54.860Z,99794.05
2022-08-27T23:07:30.455Z,99793.01
2022-08-27T23:10:10.120Z,99784.91
2022-08-27T23:12:46.213Z,99789.89
2022-08-27T23:15:27.650Z,99790.87
2022-08-27T23:18:03.860Z,99788.77
2022-08-27T23:20:36.613Z,99784.42
2022-08-27T23:23:08.261Z,99782.86
2022-08-27T23:26:01.994Z,99778.70
2022-08-27T23:31:17.687Z,99777.40
2022-08-27T23:33:53.230Z,99777.68
2022-08-27T23:36:26.059Z,99779.64
2022-08-27T23:38:57.791Z,99781.16
2022-08-27T23:41:27.919Z,99777.27
2022-08-27T23:43:59.701Z,99784.20
2022-08-27T23:46:34.039Z,99780.52
2022-08-27T23:49:04.656Z,99779.73
2022-08-27T23:51:34.475Z,99783.56
2022-08-27T23:54:04.251Z,99779.02
2022-08-27T23:56:36.025Z,99778.70
2022-08-27T23:59:07.745Z,99777.71
